createdAt,value
2022-11-08T00:02:20.443Z,7.40
2022-11-08T00:04:47.132Z,7.00
2022-11-08T00:07:32.063Z,7.07
2022-11-08T00:10:16.917Z,5.93
2022-11-08T00:13:01.831Z,5.88
2022-11-08T00:15:29.467Z,11.43
2022-11-08T00:17:56.454Z,10.70
2022-11-08T00:20:23.039Z,8.75
2022-11-08T00:22:49.638Z,7.47
2022-11-08T00:25:16.325Z,6.88
2022-11-08T00:27:42.979Z,8.68
2022-11-08T00:30:10.162Z,8.35
2022-11-08T00:32:36.791Z,9.75
2022-11-08T00:35:03.531Z,8.25
2022-11-08T00:37:30.170Z,9.77
2022-11-08T00:39:56.761Z,8.02
2022-11-08T00:42:23.427Z,12.88
2022-11-08T00:44:50.095Z,9.20
2022-11-08T00:47:16.737Z,6.60
2022-11-08T00:49:43.347Z,7.25
2022-11-08T00:52:09.965Z,8.50
2022-11-08T00:54:36.616Z,9.45
2022-11-08T00:57:03.329Z,7.47
2022-11-08T00:59:29.931Z,8.50
2022-11-08T01:01:56.700Z,6.60
2022-11-08T01:04:23.362Z,8.98
2022-11-08T01:06:50.023Z,7.32
2022-11-08T01:09:16.598Z,6.57
2022-11-08T01:11:46.505Z,8.02
2022-11-08T01:14:14.149Z,9.32
2022-11-08T01:16:40.825Z,10.25
2022-11-08T01:19:07.430Z,10.00
2022-11-08T01:21:34.121Z,12.20
2022-11-08T01:24:00.928Z,12.38
2022-11-08T01:26:28.637Z,9.55
2022-11-08T01:28:55.854Z,10.07
2022-11-08T01:31:24.760Z,9.20
2022-11-08T01:33:52.017Z,8.63
2022-11-08T01:36:21.572Z,7.88
2022-11-08T01:38:48.201Z,9.55
2022-11-08T01:41:15.946Z,9.35
2022-11-08T01:43:46.292Z,7.63
2022-11-08T01:46:19.746Z,10.52
2022-11-08T01:49:03.932Z,7.95
2022-11-08T01:51:32.780Z,8.10
2022-11-08T01:53:59.342Z,8.45
2022-11-08T01:56:25.955Z,7.47
2022-11-08T01:58:52.559Z,9.20
2022-11-08T02:01:19.286Z,8.13
2022-11-08T02:03:47.070Z,8.13
2022-11-08T02:06:13.694Z,10.43
2022-11-08T02:08:41.818Z,7.45
2022-11-08T02:11:09.413Z,6.47
2022-11-08T02:13:36.934Z,9.60
2022-11-08T02:16:06.427Z,7.40
2022-11-08T02:18:33.001Z,7.35
2022-11-08T02:21:12.253Z,8.20
2022-11-08T02:23:55.044Z,7.07
2022-11-08T02:26:26.353Z,9.38
2022-11-08T02:28:52.913Z,10.88
2022-11-08T02:31:20.112Z,9.30
2022-11-08T02:33:47.397Z,6.30
2022-11-08T02:36:19.830Z,7.65
2022-11-08T02:38:48.332Z,9.32
2022-11-08T02:41:14.919Z,8.60
2022-11-08T02:43:41.507Z,9.48
2022-11-08T02:46:08.135Z,7.13
2022-11-08T02:48:34.688Z,7.55
2022-11-08T02:51:01.274Z,8.93
2022-11-08T02:53:27.947Z,8.50
2022-11-08T02:55:54.513Z,8.50
2022-11-08T02:58:21.762Z,9.23
2022-11-08T03:00:48.380Z,7.68
2022-11-08T03:03:15.004Z,10.38
2022-11-08T03:05:43.396Z,8.45
2022-11-08T03:08:10.019Z,7.07
2022-11-08T03:10:36.614Z,10.20
2022-11-08T03:13:04.816Z,9.65
2022-11-08T03:15:32.573Z,7.95
2022-11-08T03:18:00.090Z,9.18
2022-11-08T03:20:32.250Z,7.45
2022-11-08T03:23:05.265Z,6.80
2022-11-08T03:25:32.044Z,6.03
2022-11-08T03:28:03.078Z,7.90
2022-11-08T03:30:29.746Z,8.43
2022-11-08T03:32:56.294Z,6.80
2022-11-08T03:35:23.411Z,8.13
2022-11-08T03:37:54.252Z,5.78
2022-11-08T03:40:20.975Z,8.32
2022-11-08T03:42:47.682Z,8.35
2022-11-08T03:45:15.201Z,9.32
2022-11-08T03:47:46.215Z,8.20
2022-11-08T03:50:13.974Z,8.77
2022-11-08T03:52:44.798Z,7.22
2022-11-08T03:55:11.893Z,9.05
2022-11-08T03:57:39.766Z,6.93
2022-11-08T04:00:08.074Z,5.63
2022-11-08T04:02:34.798Z,8.10
2022-11-08T04:05:01.547Z,10.65
2022-11-08T04:07:29.028Z,7.72
2022-11-08T04:09:55.924Z,7.90
2022-11-08T04:12:41.378Z,7.85
2022-11-08T04:15:16.005Z,7.45
2022-11-08T04:18:01.690Z,9.75
2022-11-08T04:20:47.020Z,11.52
2022-11-08T04:23:14.226Z,9.65
2022-11-08T04:25:40.977Z,8.90
2022-11-08T04:28:07.682Z,8.55
2022-11-08T04:30:34.318Z,9.52
2022-11-08T04:33:02.665Z,9.48
2022-11-08T04:35:30.087Z,6.88
2022-11-08T04:38:00.663Z,10.18
2022-11-08T04:40:28.175Z,7.93
2022-11-08T04:42:54.771Z,11.32
2022-11-08T04:45:21.367Z,9.43
2022-11-08T04:47:48.700Z,12.48
2022-11-08T04:50:15.657Z,7.72
2022-11-08T04:52:42.336Z,7.88
2022-11-08T04:55:09.516Z,9.48
2022-11-08T04:57:36.107Z,7.07
2022-11-08T05:00:02.749Z,8.00
2022-11-08T05:02:29.458Z,7.68
2022-11-08T05:04:56.194Z,8.15
2022-11-08T05:07:22.799Z,8.18
2022-11-08T05:09:49.347Z,7.22
2022-11-08T05:12:15.937Z,5.55
2022-11-08T05:14:42.506Z,7.40
2022-11-08T05:17:09.107Z,7.90
2022-11-08T05:19:54.027Z,6.32
2022-11-08T05:22:38.973Z,7.90
2022-11-08T05:25:05.984Z,7.68
2022-11-08T05:27:34.521Z,5.32
2022-11-08T05:30:01.209Z,5.45
2022-11-08T05:32:27.819Z,5.40
2022-11-08T05:34:55.216Z,6.82
2022-11-08T05:37:21.823Z,7.40
2022-11-08T05:39:48.380Z,6.75
2022-11-08T05:42:15.080Z,7.95
2022-11-08T05:44:41.628Z,6.57
2022-11-08T05:47:08.254Z,5.75
2022-11-08T05:49:34.814Z,5.63
2022-11-08T05:52:01.652Z,9.00
2022-11-08T05:54:28.209Z,10.15
2022-11-08T05:56:54.805Z,13.75
2022-11-08T05:59:21.407Z,11.00
2022-11-08T06:01:48.035Z,7.75
2022-11-08T06:04:14.634Z,8.65
2022-11-08T06:06:41.214Z,9.48
2022-11-08T06:09:07.883Z,9.07
2022-11-08T06:11:34.521Z,6.93
2022-11-08T06:14:01.085Z,6.65
2022-11-08T06:16:27.738Z,6.45
2022-11-08T06:18:54.445Z,5.90
2022-11-08T06:21:21.803Z,9.57
2022-11-08T06:23:48.643Z,8.93
2022-11-08T06:26:15.214Z,6.50
2022-11-08T06:28:41.810Z,6.30
2022-11-08T06:31:08.396Z,7.68
2022-11-08T06:33:35.040Z,6.28
2022-11-08T06:36:02.158Z,7.68
2022-11-08T06:38:28.882Z,6.47
2022-11-08T06:40:59.331Z,6.32
2022-11-08T06:43:26.397Z,6.45
2022-11-08T06:45:53.521Z,7.75
2022-11-08T06:48:20.077Z,9.68
2022-11-08T06:50:46.638Z,8.63
2022-11-08T06:53:13.760Z,6.05
2022-11-08T06:55:40.461Z,5.82
2022-11-08T06:58:07.276Z,9.13
2022-11-08T07:00:34.020Z,5.70
2022-11-08T07:03:02.375Z,7.03
2022-11-08T07:05:30.623Z,7.15
2022-11-08T07:07:58.503Z,5.85
2022-11-08T07:10:28.446Z,7.03
2022-11-08T07:13:15.462Z,8.05
2022-11-08T07:15:42.552Z,5.47
2022-11-08T07:18:12.963Z,7.03
2022-11-08T07:20:40.259Z,4.95
2022-11-08T07:23:07.381Z,5.57
2022-11-08T07:25:34.057Z,8.63
2022-11-08T07:28:04.490Z,7.18
2022-11-08T07:30:31.384Z,5.90
2022-11-08T07:32:58.427Z,5.65
2022-11-08T07:35:26.132Z,10.15
2022-11-08T07:37:52.792Z,7.93
2022-11-08T07:40:19.375Z,4.85
2022-11-08T07:43:13.582Z,6.38
2022-11-08T07:45:32.533Z,9.52
2022-11-08T07:48:10.664Z,7.30
2022-11-08T07:50:38.569Z,6.70
2022-11-08T07:53:05.208Z,6.20
2022-11-08T07:55:31.805Z,5.70
2022-11-08T07:58:02.218Z,4.88
2022-11-08T08:00:30.224Z,5.10
2022-11-08T08:03:03.801Z,5.95
2022-11-08T08:05:33.448Z,6.75
2022-11-08T08:08:02.051Z,6.07
2022-11-08T08:10:37.587Z,5.63
2022-11-08T08:13:04.835Z,5.13
2022-11-08T08:15:31.500Z,5.88
2022-11-08T08:18:00.535Z,4.30
2022-11-08T08:20:27.272Z,4.45
2022-11-08T08:22:53.950Z,6.68
2022-11-08T08:25:20.518Z,5.60
2022-11-08T08:27:51.020Z,10.57
2022-11-08T08:30:18.057Z,7.65
2022-11-08T08:32:47.921Z,10.32
2022-11-08T08:35:20.016Z,5.15
2022-11-08T08:37:46.653Z,6.70
2022-11-08T08:40:13.241Z,4.95
2022-11-08T08:42:39.856Z,8.88
2022-11-08T08:45:12.049Z,5.15
2022-11-08T08:47:41.228Z,7.55
2022-11-08T08:50:09.142Z,5.72
2022-11-08T08:52:35.775Z,6.78
2022-11-08T08:55:02.347Z,3.63
2022-11-08T08:57:28.941Z,3.92
2022-11-08T09:02:42.865Z,4.68
2022-11-08T09:05:10.439Z,3.67
2022-11-08T09:07:37.074Z,6.90
2022-11-08T09:10:05.146Z,5.30
2022-11-08T09:12:32.215Z,4.63
2022-11-08T09:14:58.976Z,3.95
2022-11-08T09:17:27.309Z,3.80
2022-11-08T09:19:57.212Z,3.85
2022-11-08T09:22:24.170Z,3.05
2022-11-08T09:24:50.784Z,3.72
2022-11-08T09:27:17.509Z,2.90
2022-11-08T09:29:44.078Z,3.08
2022-11-08T09:32:11.183Z,8.27
2022-11-08T09:34:37.750Z,8.85
2022-11-08T09:37:04.348Z,3.88
2022-11-08T09:39:30.976Z,5.57
2022-11-08T09:42:29.608Z,2.92
2022-11-08T09:45:22.887Z,3.85
2022-11-08T09:47:53.095Z,2.90
2022-11-08T09:50:30.877Z,3.30
2022-11-08T09:53:11.656Z,2.20
2022-11-08T09:55:48.077Z,4.70
2022-11-08T09:58:37.969Z,7.68
2022-11-08T10:01:04.789Z,6.53
2022-11-08T10:03:31.393Z,3.95
2022-11-08T10:06:19.623Z,3.20
2022-11-08T10:09:07.855Z,7.38
2022-11-08T10:11:37.325Z,3.58
2022-11-08T10:14:10.028Z,4.00
2022-11-08T10:16:58.627Z,5.78
2022-11-08T10:19:59.215Z,3.40
2022-11-08T10:22:38.337Z,4.43
2022-11-08T10:25:24.527Z,6.07
2022-11-08T10:28:29.216Z,6.72
2022-11-08T10:30:55.926Z,3.47
2022-11-08T10:33:43.115Z,2.80
2022-11-08T10:36:15.024Z,4.53
2022-11-08T10:39:04.676Z,6.78
2022-11-08T10:41:40.530Z,3.45
2022-11-08T10:44:19.867Z,2.95
2022-11-08T10:47:00.997Z,2.92
2022-11-08T10:49:35.166Z,2.78
2022-11-08T10:52:13.730Z,5.25
2022-11-08T10:54:53.537Z,4.40
2022-11-08T10:57:32.232Z,1.70
2022-11-08T11:00:26.050Z,6.00
2022-11-08T11:03:11.980Z,4.93
2022-11-08T11:05:44.390Z,3.80
2022-11-08T11:08:14.380Z,3.42
2022-11-08T11:10:49.106Z,2.58
2022-11-08T11:15:54.272Z,2.88
2022-11-08T11:18:47.322Z,3.45
2022-11-08T11:21:19.315Z,4.25
2022-11-08T11:23:46.946Z,2.20
2022-11-08T11:26:32.947Z,3.03
2022-11-08T11:29:02.164Z,2.85
2022-11-08T11:31:28.856Z,3.08
2022-11-08T11:33:55.524Z,2.85
2022-11-08T11:36:23.765Z,3.88
2022-11-08T11:39:07.426Z,1.80
2022-11-08T11:41:38.092Z,3.83
2022-11-08T11:44:16.863Z,2.65
2022-11-08T11:47:02.626Z,4.60
2022-11-08T11:49:30.819Z,2.95
2022-11-08T11:51:58.703Z,4.43
2022-11-08T11:54:30.467Z,4.22
2022-11-08T11:56:59.177Z,3.85
2022-11-08T11:59:44.007Z,2.33
2022-11-08T12:02:10.704Z,2.17
2022-11-08T12:05:08.481Z,5.07
2022-11-08T12:07:36.994Z,4.72
2022-11-08T12:10:25.795Z,2.70
2022-11-08T12:13:09.017Z,2.90
2022-11-08T12:15:45.400Z,4.03
2022-11-08T12:18:43.987Z,2.28
2022-11-08T12:21:15.073Z,3.08
2022-11-08T12:23:58.741Z,3.33
2022-11-08T12:26:52.515Z,2.97
2022-11-08T12:29:42.267Z,3.80
2022-11-08T12:32:23.473Z,1.48
2022-11-08T12:35:19.855Z,3.70
2022-11-08T12:37:54.738Z,1.48
2022-11-08T12:40:31.435Z,3.30
2022-11-08T12:43:21.911Z,2.55
2022-11-08T12:46:09.529Z,1.92
2022-11-08T12:49:03.212Z,2.20
2022-11-08T12:51:50.436Z,2.00
2022-11-08T12:54:33.106Z,3.28
2022-11-08T12:57:02.814Z,3.83
2022-11-08T12:59:34.436Z,2.10
2022-11-08T13:02:02.181Z,2.40
2022-11-08T13:04:47.272Z,2.83
2022-11-08T13:07:25.104Z,3.13
2022-11-08T13:10:01.006Z,2.50
2022-11-08T13:12:53.857Z,2.72
2022-11-08T13:15:25.204Z,3.45
2022-11-08T13:18:07.325Z,2.28
2022-11-08T13:20:52.280Z,4.13
2022-11-08T13:23:26.841Z,2.75
2022-11-08T13:25:53.663Z,7.43
2022-11-08T13:28:40.923Z,7.85
2022-11-08T13:31:30.527Z,11.95
2022-11-08T13:34:06.595Z,8.38
2022-11-08T13:37:05.605Z,5.45
2022-11-08T13:39:49.757Z,4.35
2022-11-08T13:42:16.412Z,6.50
2022-11-08T13:44:55.404Z,3.45
2022-11-08T13:47:34.539Z,4.80
2022-11-08T13:50:29.510Z,8.07
2022-11-08T13:53:04.048Z,7.03
2022-11-08T13:55:43.011Z,4.55
2022-11-08T13:58:36.798Z,4.78
2022-11-08T14:01:18.698Z,5.68
2022-11-08T14:03:48.430Z,2.08
2022-11-08T14:06:24.025Z,2.72
2022-11-08T14:09:08.971Z,2.90
2022-11-08T14:12:00.534Z,4.28
2022-11-08T14:14:36.482Z,4.53
2022-11-08T14:17:06.244Z,3.17
2022-11-08T14:19:33.496Z,4.05
2022-11-08T14:22:01.938Z,5.43
2022-11-08T14:24:30.529Z,2.20
2022-11-08T14:26:57.299Z,3.60
2022-11-08T14:29:24.824Z,6.20
2022-11-08T14:32:06.767Z,4.38
2022-11-08T14:34:38.357Z,3.10
2022-11-08T14:37:06.315Z,2.95
2022-11-08T14:39:36.537Z,4.10
2022-11-08T14:42:04.755Z,3.10
2022-11-08T14:44:31.542Z,2.63
2022-11-08T14:46:59.285Z,3.80
2022-11-08T14:49:38.289Z,4.07
2022-11-08T14:52:17.537Z,2.85
2022-11-08T14:54:48.765Z,5.00
2022-11-08T14:57:41.422Z,5.68
2022-11-08T15:00:14.567Z,5.97
2022-11-08T15:02:42.602Z,4.72
2022-11-08T15:05:30.639Z,4.18
2022-11-08T15:08:00.990Z,3.50
2022-11-08T15:10:28.096Z,3.00
2022-11-08T15:12:54.845Z,3.38
2022-11-08T15:15:27.284Z,3.50
2022-11-08T15:18:27.200Z,4.65
2022-11-08T15:21:02.183Z,2.72
2022-11-08T15:23:47.791Z,2.70
2022-11-08T15:26:26.328Z,2.45
2022-11-08T15:29:07.205Z,3.40
2022-11-08T15:31:42.123Z,3.78
2022-11-08T15:34:30.271Z,5.32
2022-11-08T15:36:57.449Z,2.80
2022-11-08T15:39:32.124Z,4.50
2022-11-08T15:42:04.118Z,4.55
2022-11-08T15:44:30.902Z,4.23
2022-11-08T15:46:59.104Z,3.72
2022-11-08T15:49:28.024Z,4.05
2022-11-08T15:51:56.537Z,6.45
2022-11-08T15:54:25.425Z,3.08
2022-11-08T15:56:53.507Z,3.13
2022-11-08T15:59:39.072Z,4.22
2022-11-08T16:02:12.013Z,6.82
2022-11-08T16:04:38.977Z,7.47
2022-11-08T16:07:05.891Z,10.10
2022-11-08T16:09:32.683Z,4.95
2022-11-08T16:12:00.963Z,4.70
2022-11-08T16:14:27.775Z,4.68
2022-11-08T16:16:54.600Z,5.65
2022-11-08T16:19:23.734Z,5.25
2022-11-08T16:21:51.165Z,6.20
2022-11-08T16:24:18.301Z,5.70
2022-11-08T16:26:46.152Z,4.43
2022-11-08T16:29:22.104Z,6.88
2022-11-08T16:31:52.539Z,3.47
2022-11-08T16:34:23.152Z,4.15
2022-11-08T16:36:50.287Z,5.03
2022-11-08T16:39:18.892Z,5.15
2022-11-08T16:41:46.071Z,5.03
2022-11-08T16:44:13.158Z,5.40
2022-11-08T16:46:40.468Z,5.05
2022-11-08T16:49:07.723Z,3.90
2022-11-08T16:51:34.498Z,5.07
2022-11-08T16:54:02.895Z,7.13
2022-11-08T16:56:29.777Z,4.15
2022-11-08T16:58:56.567Z,5.57
2022-11-08T17:01:32.606Z,4.63
2022-11-08T17:03:59.313Z,6.55
2022-11-08T17:06:26.067Z,5.70
2022-11-08T17:08:52.803Z,5.65
2022-11-08T17:11:21.413Z,8.57
2022-11-08T17:13:48.533Z,9.65
2022-11-08T17:16:15.623Z,8.15
2022-11-08T17:18:42.617Z,6.75
2022-11-08T17:21:42.537Z,6.00
2022-11-08T17:23:59.900Z,6.97
2022-11-08T17:26:27.154Z,8.82
2022-11-08T17:28:56.897Z,6.93
2022-11-08T17:31:23.593Z,8.82
2022-11-08T17:33:50.272Z,17.52
2022-11-08T17:36:17.011Z,15.50
2022-11-08T17:38:43.827Z,15.55
2022-11-08T17:41:13.162Z,16.58
2022-11-08T17:43:40.215Z,13.63
2022-11-08T17:46:07.394Z,11.75
2022-11-08T17:48:34.867Z,10.98
2022-11-08T17:51:01.738Z,10.43
2022-11-08T17:53:29.073Z,7.55
2022-11-08T17:55:57.347Z,6.45
2022-11-08T17:58:26.015Z,7.10
2022-11-08T18:00:54.524Z,6.57
2022-11-08T18:03:21.762Z,6.35
2022-11-08T18:06:02.595Z,8.13
2022-11-08T18:08:30.620Z,7.13
2022-11-08T18:10:57.540Z,7.75
2022-11-08T18:13:25.529Z,6.05
2022-11-08T18:15:53.308Z,8.13
2022-11-08T18:18:21.690Z,6.30
2022-11-08T18:21:01.618Z,5.30
2022-11-08T18:23:30.149Z,6.28
2022-11-08T18:25:57.841Z,5.05
2022-11-08T18:28:25.570Z,5.57
2022-11-08T18:30:53.274Z,6.18
2022-11-08T18:33:22.967Z,5.72
2022-11-08T18:35:50.304Z,5.32
2022-11-08T18:38:17.660Z,7.47
2022-11-08T18:40:46.049Z,4.88
2022-11-08T18:43:12.968Z,5.20
2022-11-08T18:45:40.121Z,7.50
2022-11-08T18:48:07.258Z,6.03
2022-11-08T18:50:35.470Z,7.30
2022-11-08T18:53:04.077Z,6.72
2022-11-08T18:55:31.736Z,7.78
2022-11-08T18:58:00.558Z,5.43
2022-11-08T19:00:27.334Z,7.80
2022-11-08T19:02:54.237Z,7.65
2022-11-08T19:05:20.932Z,5.22
2022-11-08T19:07:47.693Z,7.65
2022-11-08T19:10:14.495Z,8.23
2022-11-08T19:12:41.200Z,8.13
2022-11-08T19:15:08.643Z,6.35
2022-11-08T19:17:36.463Z,8.82
2022-11-08T19:20:04.036Z,7.32
2022-11-08T19:22:30.903Z,6.15
2022-11-08T19:24:57.611Z,5.43
2022-11-08T19:27:24.441Z,6.60
2022-11-08T19:29:51.113Z,6.78
2022-11-08T19:32:17.964Z,5.72
2022-11-08T19:34:47.127Z,7.28
2022-11-08T19:37:13.868Z,7.40
2022-11-08T19:39:40.657Z,4.38
2022-11-08T19:42:07.367Z,5.05
2022-11-08T19:44:34.060Z,4.78
2022-11-08T19:47:00.795Z,5.57
2022-11-08T19:49:28.795Z,7.45
2022-11-08T19:51:55.547Z,3.90
2022-11-08T19:54:22.275Z,4.20
2022-11-08T19:57:05.893Z,5.05
2022-11-08T19:59:33.061Z,4.88
2022-11-08T20:02:00.114Z,3.47
2022-11-08T20:04:27.072Z,4.00
2022-11-08T20:06:53.938Z,4.30
2022-11-08T20:09:21.903Z,3.78
2022-11-08T20:11:50.263Z,3.28
2022-11-08T20:14:17.065Z,4.40
2022-11-08T20:16:47.843Z,3.90
2022-11-08T20:19:17.992Z,3.28
2022-11-08T20:21:46.411Z,4.78
2022-11-08T20:24:13.644Z,4.05
2022-11-08T20:26:41.541Z,5.40
2022-11-08T20:29:08.676Z,6.70
2022-11-08T20:31:35.900Z,7.10
2022-11-08T20:34:05.988Z,8.35
2022-11-08T20:36:35.254Z,9.43
2022-11-08T20:39:06.841Z,9.10
2022-11-08T20:41:35.789Z,5.88
2022-11-08T20:44:06.064Z,7.10
2022-11-08T20:46:34.266Z,6.43
2022-11-08T20:49:01.670Z,6.45
2022-11-08T20:51:30.061Z,5.95
2022-11-08T20:53:57.689Z,6.00
2022-11-08T20:56:24.684Z,11.20
2022-11-08T20:58:51.946Z,8.68
2022-11-08T21:01:20.564Z,5.57
2022-11-08T21:03:47.577Z,6.45
2022-11-08T21:06:16.586Z,5.28
2022-11-08T21:08:59.086Z,5.75
2022-11-08T21:11:27.699Z,11.15
2022-11-08T21:13:54.405Z,9.18
2022-11-08T21:16:53.174Z,5.07
2022-11-08T21:19:07.739Z,5.53
2022-11-08T21:21:34.557Z,5.75
2022-11-08T21:24:01.130Z,4.88
2022-11-08T21:26:27.831Z,5.63
2022-11-08T21:28:54.503Z,8.68
2022-11-08T21:31:21.173Z,5.85
2022-11-08T21:33:47.755Z,5.10
2022-11-08T21:36:14.419Z,3.72
2022-11-08T21:38:41.133Z,5.25
2022-11-08T21:41:09.195Z,4.97
2022-11-08T21:43:37.776Z,3.92
2022-11-08T21:46:17.154Z,3.92
2022-11-08T21:48:44.001Z,4.22
2022-11-08T21:51:10.639Z,6.03
2022-11-08T21:53:45.146Z,6.05
2022-11-08T21:56:16.189Z,6.50
2022-11-08T21:58:42.922Z,7.03
2022-11-08T22:01:09.740Z,5.53
2022-11-08T22:03:36.552Z,5.07
2022-11-08T22:06:03.283Z,4.70
2022-11-08T22:08:30.020Z,7.13
2022-11-08T22:10:56.646Z,4.07
2022-11-08T22:13:23.209Z,5.13
2022-11-08T22:15:49.823Z,5.82
2022-11-08T22:18:22.772Z,8.40
2022-11-08T22:21:21.684Z,8.27
2022-11-08T22:23:48.266Z,11.50
2022-11-08T22:26:14.838Z,11.90
2022-11-08T22:28:41.390Z,6.57
2022-11-08T22:31:07.984Z,6.53
2022-11-08T22:33:34.543Z,6.13
2022-11-08T22:36:01.201Z,7.13
2022-11-08T22:38:27.840Z,7.82
2022-11-08T22:40:54.453Z,5.15
2022-11-08T22:43:21.022Z,5.43
2022-11-08T22:45:47.599Z,7.13
2022-11-08T22:48:14.180Z,7.63
2022-11-08T22:50:40.802Z,5.00
2022-11-08T22:53:08.260Z,6.53
2022-11-08T22:55:35.094Z,6.60
2022-11-08T22:58:02.053Z,4.97
2022-11-08T23:00:28.809Z,7.07
2022-11-08T23:02:55.623Z,4.30
2022-11-08T23:05:22.208Z,6.25
2022-11-08T23:07:48.821Z,5.93
2022-11-08T23:10:15.573Z,6.72
2022-11-08T23:13:00.508Z,6.55
2022-11-08T23:15:52.876Z,6.57
2022-11-08T23:18:20.453Z,7.13
2022-11-08T23:21:05.247Z,8.85
2022-11-08T23:23:50.387Z,7.10
2022-11-08T23:26:38.122Z,9.75
2022-11-08T23:29:42.946Z,6.30
2022-11-08T23:32:09.534Z,7.28
2022-11-08T23:34:36.075Z,5.80
2022-11-08T23:37:02.645Z,6.05
2022-11-08T23:39:29.667Z,9.15
2022-11-08T23:42:14.540Z,8.15
2022-11-08T23:44:41.076Z,7.78
2022-11-08T23:47:07.716Z,5.82
2022-11-08T23:49:34.269Z,8.05
2022-11-08T23:52:00.836Z,7.35
2022-11-08T23:54:27.513Z,8.00
2022-11-08T23:56:54.098Z,10.25
2022-11-08T23:59:20.639Z,7.93
